createdAt,value
2023-02-19T00:01:54.786Z,97495.38
2023-02-19T00:04:25.802Z,97502.41
2023-02-19T00:06:55.216Z,97501.85
2023-02-19T00:09:27.083Z,97497.10
2023-02-19T00:11:57.948Z,97491.16
2023-02-19T00:14:28.891Z,97483.83
2023-02-19T00:16:59.931Z,97485.30
2023-02-19T00:19:32.123Z,97483.26
2023-02-19T00:22:02.961Z,97479.48
2023-02-19T00:24:33.834Z,97478.27
2023-02-19T00:27:03.206Z,97477.18
2023-02-19T00:29:34.413Z,97476.91
2023-02-19T00:32:06.039Z,97472.97
2023-02-19T00:34:37.197Z,97469.60
2023-02-19T00:37:06.575Z,97469.48
2023-02-19T00:39:37.793Z,97473.50
2023-02-19T00:42:09.119Z,97477.20
2023-02-19T00:44:40.284Z,97476.76
2023-02-19T00:47:11.253Z,97480.86
2023-02-19T00:49:40.712Z,97473.02
2023-02-19T00:52:11.802Z,97473.39
2023-02-19T00:54:42.955Z,97479.59
2023-02-19T00:57:13.958Z,97471.21
2023-02-19T00:59:45.134Z,97472.06
2023-02-19T01:02:14.503Z,97466.05
2023-02-19T01:04:45.608Z,97462.90
2023-02-19T01:07:16.770Z,97457.60
2023-02-19T01:09:46.168Z,97461.71
2023-02-19T01:12:17.201Z,97467.47
2023-02-19T01:14:48.278Z,97462.71
2023-02-19T01:17:19.452Z,97463.17
2023-02-19T01:19:50.629Z,97469.72
2023-02-19T01:22:21.647Z,97457.14
2023-02-19T01:24:52.752Z,97445.70
2023-02-19T01:27:22.222Z,97437.04
2023-02-19T01:29:53.188Z,97427.56
2023-02-19T01:32:22.644Z,97424.55
2023-02-19T01:34:53.712Z,97414.09
2023-02-19T01:37:23.254Z,97408.30
2023-02-19T01:39:54.206Z,97406.31
2023-02-19T01:42:25.379Z,97406.73
2023-02-19T01:45:14.118Z,97406.68
2023-02-19T01:47:45.427Z,97405.17
2023-02-19T01:50:17.229Z,97403.70
2023-02-19T01:52:48.778Z,97401.82
2023-02-19T01:55:19.825Z,97399.16
2023-02-19T01:57:51.888Z,97393.45
2023-02-19T02:00:24.900Z,97385.38
2023-02-19T02:02:58.863Z,97378.96
2023-02-19T02:05:41.387Z,97368.81
2023-02-19T02:08:30.885Z,97364.23
2023-02-19T02:11:02.168Z,97358.69
2023-02-19T02:13:34.187Z,97350.80
2023-02-19T02:16:23.341Z,97353.73
2023-02-19T02:19:03.809Z,97352.31
2023-02-19T02:22:00.190Z,97346.33
2023-02-19T02:25:06.475Z,97341.23
2023-02-19T02:27:55.340Z,97343.95
2023-02-19T02:30:33.521Z,97339.46
2023-02-19T02:33:15.015Z,97339.54
2023-02-19T02:35:50.929Z,97338.73
2023-02-19T02:38:25.064Z,97338.02
2023-02-19T02:40:58.012Z,97342.53
2023-02-19T02:43:29.357Z,97343.83
2023-02-19T02:46:00.749Z,97346.02
2023-02-19T02:48:39.597Z,97340.86
2023-02-19T02:51:15.441Z,97344.14
2023-02-19T02:54:10.664Z,97342.55
2023-02-19T02:56:42.863Z,97343.16
2023-02-19T02:59:16.571Z,97342.45
2023-02-19T03:02:10.230Z,97336.47
2023-02-19T03:05:09.497Z,97333.59
2023-02-19T03:07:45.201Z,97332.00
2023-02-19T03:10:20.680Z,97326.84
2023-02-19T03:13:13.705Z,97328.00
2023-02-19T03:16:09.343Z,97326.36
2023-02-19T03:19:01.043Z,97326.50
2023-02-19T03:21:36.130Z,97318.95
2023-02-19T03:24:28.862Z,97313.05
2023-02-19T03:27:03.761Z,97315.13
2023-02-19T03:29:36.693Z,97316.24
2023-02-19T03:32:12.869Z,97313.67
2023-02-19T03:34:49.297Z,97299.75
2023-02-19T03:37:26.193Z,97292.48
2023-02-19T03:39:58.272Z,97291.58
2023-02-19T03:42:38.136Z,97295.01
2023-02-19T03:45:30.531Z,97297.11
2023-02-19T03:48:16.402Z,97294.05
2023-02-19T03:50:51.565Z,97292.09
2023-02-19T03:53:29.791Z,97290.45
2023-02-19T03:56:11.004Z,97290.27
2023-02-19T03:58:49.738Z,97287.75
2023-02-19T04:01:28.119Z,97286.67
2023-02-19T04:04:04.888Z,97286.30
2023-02-19T04:06:38.438Z,97283.15
2023-02-19T04:09:12.680Z,97272.02
2023-02-19T04:11:44.002Z,97269.41
2023-02-19T04:14:21.629Z,97268.66
2023-02-19T04:16:56.593Z,97272.00
2023-02-19T04:19:30.380Z,97275.24
2023-02-19T04:22:02.712Z,97273.88
2023-02-19T04:24:37.541Z,97266.23
2023-02-19T04:27:10.258Z,97264.04
2023-02-19T04:29:41.820Z,97264.80
2023-02-19T04:32:14.401Z,97262.77
2023-02-19T04:34:45.293Z,97261.02
2023-02-19T04:37:16.303Z,97257.73
2023-02-19T04:39:45.808Z,97252.52
2023-02-19T04:42:16.978Z,97251.23
2023-02-19T04:44:48.551Z,97243.89
2023-02-19T04:47:19.792Z,97241.16
2023-02-19T04:49:50.893Z,97239.48
2023-02-19T04:52:21.986Z,97241.11
2023-02-19T04:54:52.929Z,97241.73
2023-02-19T04:57:24.012Z,97239.45
2023-02-19T04:59:54.886Z,97239.80
2023-02-19T05:02:26.245Z,97237.39
2023-02-19T05:04:57.423Z,97235.75
2023-02-19T05:07:28.397Z,97229.14
2023-02-19T05:09:59.854Z,97226.95
2023-02-19T05:12:32.408Z,97231.35
2023-02-19T05:15:03.636Z,97229.88
2023-02-19T05:17:35.692Z,97231.22
2023-02-19T05:20:08.045Z,97228.53
2023-02-19T05:22:39.137Z,97227.68
2023-02-19T05:25:10.441Z,97220.73
2023-02-19T05:27:41.674Z,97214.27
2023-02-19T05:30:12.397Z,97210.39
2023-02-19T05:32:43.324Z,97204.89
2023-02-19T05:35:12.761Z,97199.77
2023-02-19T05:37:43.905Z,97194.52
2023-02-19T05:40:15.095Z,97192.52
2023-02-19T05:42:46.182Z,97190.84
2023-02-19T05:45:17.373Z,97187.20
2023-02-19T05:47:46.953Z,97189.08
2023-02-19T05:50:18.486Z,97186.90
2023-02-19T05:52:49.488Z,97183.27
2023-02-19T05:55:20.773Z,97183.39
2023-02-19T05:57:51.983Z,97179.44
2023-02-19T06:00:27.037Z,97177.48
2023-02-19T06:02:58.188Z,97176.77
2023-02-19T06:05:29.193Z,97176.70
2023-02-19T06:08:00.238Z,97174.75
2023-02-19T06:10:31.119Z,97173.66
2023-02-19T06:13:00.604Z,97176.86
2023-02-19T06:15:31.517Z,97178.52
2023-02-19T06:18:02.726Z,97176.06
2023-02-19T06:20:34.178Z,97179.34
2023-02-19T06:23:05.421Z,97182.02
2023-02-19T06:25:34.926Z,97177.73
2023-02-19T06:28:06.025Z,97176.69
2023-02-19T06:30:35.466Z,97177.60
2023-02-19T06:33:06.476Z,97177.31
2023-02-19T06:35:37.646Z,97175.81
2023-02-19T06:38:07.047Z,97169.88
2023-02-19T06:40:38.036Z,97172.42
2023-02-19T06:43:08.768Z,97170.30
2023-02-19T06:45:39.944Z,97165.09
2023-02-19T06:48:10.932Z,97162.56
2023-02-19T06:50:42.194Z,97165.48
2023-02-19T06:53:13.386Z,97171.80
2023-02-19T06:55:42.875Z,97168.77
2023-02-19T06:58:13.687Z,97170.48
2023-02-19T07:00:44.780Z,97176.80
2023-02-19T07:03:14.167Z,97180.56
2023-02-19T07:05:45.155Z,97184.88
2023-02-19T07:08:17.384Z,97195.98
2023-02-19T07:10:54.917Z,97202.09
2023-02-19T07:13:24.619Z,97207.48
2023-02-19T07:16:01.148Z,97214.91
2023-02-19T07:18:33.228Z,97220.38
2023-02-19T07:21:07.444Z,97216.26
2023-02-19T07:23:38.925Z,97225.84
2023-02-19T07:26:11.598Z,97219.44
2023-02-19T07:28:43.037Z,97220.06
2023-02-19T07:31:12.973Z,97221.02
2023-02-19T07:33:45.659Z,97228.02
2023-02-19T07:36:18.779Z,97235.86
2023-02-19T07:38:55.333Z,97239.80
2023-02-19T07:41:28.135Z,97244.21
2023-02-19T07:43:59.390Z,97249.35
2023-02-19T07:46:30.705Z,97253.02
2023-02-19T07:49:02.370Z,97247.73
2023-02-19T07:51:33.580Z,97241.34
2023-02-19T07:54:04.890Z,97239.73
2023-02-19T07:56:34.302Z,97236.66
2023-02-19T07:59:05.275Z,97237.88
2023-02-19T08:01:53.966Z,97243.40
2023-02-19T08:04:25.089Z,97245.46
2023-02-19T08:06:57.053Z,97241.89
2023-02-19T08:09:28.222Z,97233.27
2023-02-19T08:12:16.583Z,97237.34
2023-02-19T08:14:47.721Z,97240.73
2023-02-19T08:17:18.880Z,97243.04
2023-02-19T08:19:49.876Z,97250.73
2023-02-19T08:22:20.835Z,97247.66
2023-02-19T08:24:52.365Z,97248.98
2023-02-19T08:27:23.564Z,97256.19
2023-02-19T08:29:54.572Z,97258.83
2023-02-19T08:32:25.851Z,97260.08
2023-02-19T08:34:56.978Z,97263.98
2023-02-19T08:37:26.444Z,97264.64
2023-02-19T08:39:57.490Z,97268.36
2023-02-19T08:42:26.878Z,97264.29
2023-02-19T08:44:57.966Z,97264.27
2023-02-19T08:47:27.260Z,97270.27
2023-02-19T08:49:58.378Z,97273.29
2023-02-19T08:52:29.337Z,97284.64
2023-02-19T08:55:01.252Z,97291.05
2023-02-19T08:57:32.732Z,97285.48
2023-02-19T09:00:04.621Z,97284.29
2023-02-19T09:02:35.603Z,97289.59
2023-02-19T09:05:07.759Z,97293.05
2023-02-19T09:07:39.075Z,97300.13
2023-02-19T09:10:11.302Z,97302.80
2023-02-19T09:12:42.538Z,97309.84
2023-02-19T09:15:11.941Z,97308.79
2023-02-19T09:17:43.415Z,97308.95
2023-02-19T09:20:15.190Z,97313.33
2023-02-19T09:22:46.214Z,97307.98
2023-02-19T09:25:17.984Z,97314.71
2023-02-19T09:27:48.950Z,97319.33
2023-02-19T09:30:20.343Z,97319.42
2023-02-19T09:32:51.890Z,97329.30
2023-02-19T09:35:22.796Z,97328.61
2023-02-19T09:37:52.475Z,97337.33
2023-02-19T09:40:23.623Z,97338.83
2023-02-19T09:42:54.694Z,97344.75
2023-02-19T09:45:27.447Z,97351.54
2023-02-19T09:48:00.027Z,97357.64
2023-02-19T09:50:39.191Z,97363.06
2023-02-19T09:53:17.058Z,97364.51
2023-02-19T09:55:48.189Z,97367.33
2023-02-19T09:58:27.363Z,97375.40
2023-02-19T10:01:01.262Z,97384.83
2023-02-19T10:03:35.448Z,97386.81
2023-02-19T10:06:14.108Z,97396.27
2023-02-19T10:08:46.631Z,97409.20
2023-02-19T10:11:19.326Z,97419.19
2023-02-19T10:13:54.476Z,97424.05
2023-02-19T10:16:29.349Z,97428.75
2023-02-19T10:19:00.440Z,97423.75
2023-02-19T10:21:31.550Z,97422.60
2023-02-19T10:24:06.533Z,97426.64
2023-02-19T10:26:37.854Z,97436.06
2023-02-19T10:29:10.768Z,97441.95
2023-02-19T10:31:42.030Z,97448.97
2023-02-19T10:34:22.334Z,97454.35
2023-02-19T10:36:54.162Z,97460.31
2023-02-19T10:39:43.497Z,97453.42
2023-02-19T10:42:25.647Z,97447.73
2023-02-19T10:45:01.974Z,97444.95
2023-02-19T10:47:36.007Z,97447.07
2023-02-19T10:50:08.911Z,97450.06
2023-02-19T10:52:40.120Z,97456.68
2023-02-19T10:55:26.180Z,97466.25
2023-02-19T10:57:57.737Z,97472.77
2023-02-19T11:00:30.821Z,97473.95
2023-02-19T11:03:21.403Z,97464.55
2023-02-19T11:06:01.213Z,97471.80
2023-02-19T11:08:47.004Z,97485.91
2023-02-19T11:11:37.067Z,97503.48
2023-02-19T11:14:19.458Z,97504.17
2023-02-19T11:16:53.092Z,97512.41
2023-02-19T11:19:33.005Z,97521.31
2023-02-19T11:22:19.368Z,97525.80
2023-02-19T11:24:57.260Z,97531.85
2023-02-19T11:27:29.676Z,97536.25
2023-02-19T11:30:36.054Z,97532.98
2023-02-19T11:33:25.580Z,97546.67
2023-02-19T11:36:01.965Z,97540.34
2023-02-19T11:38:33.718Z,97539.83
2023-02-19T11:41:12.258Z,97539.41
2023-02-19T11:43:57.579Z,97534.14
2023-02-19T11:46:41.663Z,97538.13
2023-02-19T11:49:24.915Z,97548.13
2023-02-19T11:52:12.609Z,97557.45
2023-02-19T11:54:52.099Z,97558.23
2023-02-19T11:57:38.397Z,97568.11
2023-02-19T12:00:30.309Z,97571.52
2023-02-19T12:03:27.932Z,97572.21
2023-02-19T12:06:20.589Z,97568.36
2023-02-19T12:09:11.636Z,97571.53
2023-02-19T12:11:59.578Z,97579.71
2023-02-19T12:14:58.734Z,97578.44
2023-02-19T12:17:47.864Z,97586.96
2023-02-19T12:20:31.709Z,97590.45
2023-02-19T12:23:24.016Z,97594.64
2023-02-19T12:26:04.082Z,97603.42
2023-02-19T12:29:01.603Z,97599.40
2023-02-19T12:32:02.446Z,97616.24
2023-02-19T12:34:46.133Z,97611.13
2023-02-19T12:37:22.898Z,97627.42
2023-02-19T12:40:04.894Z,97636.13
2023-02-19T12:42:51.274Z,97640.19
2023-02-19T12:45:31.260Z,97639.48
2023-02-19T12:48:07.441Z,97644.89
2023-02-19T12:50:41.177Z,97653.29
2023-02-19T12:53:22.848Z,97653.58
2023-02-19T12:55:55.582Z,97662.75
2023-02-19T12:58:33.523Z,97654.75
2023-02-19T13:01:05.223Z,97657.89
2023-02-19T13:03:40.561Z,97655.74
2023-02-19T13:06:22.471Z,97655.98
2023-02-19T13:09:07.344Z,97652.27
2023-02-19T13:11:44.068Z,97665.86
2023-02-19T13:14:22.707Z,97671.71
2023-02-19T13:16:58.492Z,97677.81
2023-02-19T13:19:32.051Z,97674.20
2023-02-19T13:22:35.204Z,97685.59
2023-02-19T13:25:08.194Z,97692.81
2023-02-19T13:28:00.493Z,97687.04
2023-02-19T13:30:47.261Z,97683.77
2023-02-19T13:33:34.324Z,97689.34
2023-02-19T13:36:21.445Z,97698.82
2023-02-19T13:38:57.372Z,97702.59
2023-02-19T13:41:33.432Z,97719.10
2023-02-19T13:44:08.242Z,97721.89
2023-02-19T13:46:43.109Z,97718.66
2023-02-19T13:49:49.864Z,97723.33
2023-02-19T13:52:42.074Z,97726.65
2023-02-19T13:55:49.941Z,97722.34
2023-02-19T13:58:55.940Z,97729.14
2023-02-19T14:02:12.778Z,97727.05
2023-02-19T14:04:52.850Z,97732.19
2023-02-19T14:07:36.977Z,97742.11
2023-02-19T14:10:15.522Z,97754.01
2023-02-19T14:12:46.734Z,97762.73
2023-02-19T14:15:45.247Z,97774.91
2023-02-19T14:18:43.524Z,97792.27
2023-02-19T14:21:25.815Z,97797.83
2023-02-19T14:24:00.209Z,97801.91
2023-02-19T14:26:35.207Z,97817.71
2023-02-19T14:29:08.265Z,97828.32
2023-02-19T14:31:41.196Z,97830.04
2023-02-19T14:34:22.559Z,97825.31
2023-02-19T14:36:58.296Z,97826.53
2023-02-19T14:39:33.408Z,97826.42
2023-02-19T14:42:06.888Z,97833.40
2023-02-19T14:44:47.571Z,97836.11
2023-02-19T14:47:22.565Z,97845.42
2023-02-19T14:49:56.500Z,97841.05
2023-02-19T14:52:32.498Z,97838.95
2023-02-19T14:55:08.095Z,97845.02
2023-02-19T14:57:43.256Z,97861.30
2023-02-19T15:00:27.129Z,97863.54
2023-02-19T15:03:00.179Z,97865.67
2023-02-19T15:05:33.152Z,97860.33
2023-02-19T15:08:08.808Z,97867.41
2023-02-19T15:10:43.347Z,97872.88
2023-02-19T15:13:20.777Z,97880.43
2023-02-19T15:15:53.054Z,97880.23
2023-02-19T15:18:26.423Z,97880.08
2023-02-19T15:21:04.747Z,97883.55
2023-02-19T15:23:37.377Z,97884.25
2023-02-19T15:26:17.254Z,97884.20
2023-02-19T15:28:48.527Z,97892.41
2023-02-19T15:31:20.014Z,97901.23
2023-02-19T15:33:55.525Z,97895.68
2023-02-19T15:36:31.091Z,97909.81
2023-02-19T15:39:03.968Z,97909.92
2023-02-19T15:41:37.250Z,97914.63
2023-02-19T15:44:28.261Z,97904.69
2023-02-19T15:47:01.124Z,97905.10
2023-02-19T15:49:40.893Z,97908.20
2023-02-19T15:52:18.269Z,97912.84
2023-02-19T15:54:54.448Z,97914.61
2023-02-19T15:57:30.356Z,97931.06
2023-02-19T16:00:04.254Z,97944.20
2023-02-19T16:02:36.185Z,97944.80
2023-02-19T16:05:17.980Z,97944.02
2023-02-19T16:07:49.343Z,97946.64
2023-02-19T16:10:23.860Z,97954.06
2023-02-19T16:13:03.592Z,97958.93
2023-02-19T16:15:35.650Z,97960.63
2023-02-19T16:18:07.573Z,97960.72
2023-02-19T16:20:38.852Z,97974.34
2023-02-19T16:23:18.708Z,97981.52
2023-02-19T16:25:50.325Z,97987.58
2023-02-19T16:28:25.895Z,97983.22
2023-02-19T16:31:04.461Z,97982.84
2023-02-19T16:33:43.576Z,97985.00
2023-02-19T16:36:35.715Z,97989.05
2023-02-19T16:39:26.400Z,97996.05
2023-02-19T16:42:20.707Z,98002.02
2023-02-19T16:44:51.644Z,98009.09
2023-02-19T16:47:38.364Z,98011.27
2023-02-19T16:50:16.604Z,98017.80
2023-02-19T16:52:58.314Z,98027.23
2023-02-19T16:55:30.314Z,98027.41
2023-02-19T16:58:01.330Z,98034.88
2023-02-19T17:00:32.191Z,98043.42
2023-02-19T17:03:09.203Z,98049.75
2023-02-19T17:05:41.429Z,98046.94
2023-02-19T17:08:33.892Z,98053.84
2023-02-19T17:11:06.936Z,98057.56
2023-02-19T17:13:38.276Z,98058.63
2023-02-19T17:16:07.914Z,98053.75
2023-02-19T17:18:39.263Z,98058.08
2023-02-19T17:21:17.482Z,98054.47
2023-02-19T17:23:48.963Z,98052.02
2023-02-19T17:26:26.019Z,98052.83
2023-02-19T17:28:58.799Z,98061.23
2023-02-19T17:31:30.654Z,98063.79
2023-02-19T17:34:01.690Z,98060.13
2023-02-19T17:36:32.515Z,98064.10
2023-02-19T17:39:07.091Z,98069.92
2023-02-19T17:41:38.498Z,98072.16
2023-02-19T17:44:09.759Z,98081.12
2023-02-19T17:46:41.621Z,98087.58
2023-02-19T17:49:15.442Z,98091.44
2023-02-19T17:51:47.058Z,98097.45
2023-02-19T17:54:18.020Z,98103.77
2023-02-19T17:56:49.579Z,98105.64
2023-02-19T17:59:19.280Z,98111.69
2023-02-19T18:01:50.599Z,98113.54
2023-02-19T18:04:21.837Z,98117.02
2023-02-19T18:06:53.729Z,98116.08
2023-02-19T18:09:24.767Z,98128.80
2023-02-19T18:11:56.014Z,98138.73
2023-02-19T18:14:27.569Z,98138.05
2023-02-19T18:16:57.254Z,98138.96
2023-02-19T18:19:28.299Z,98141.30
2023-02-19T18:21:59.398Z,98143.61
2023-02-19T18:24:30.902Z,98144.14
2023-02-19T18:27:02.641Z,98144.23
2023-02-19T18:29:35.066Z,98156.06
2023-02-19T18:32:06.997Z,98157.00
2023-02-19T18:34:38.436Z,98150.89
2023-02-19T18:37:07.992Z,98163.29
2023-02-19T18:39:38.986Z,98168.90
2023-02-19T18:42:08.842Z,98170.17
2023-02-19T18:44:40.250Z,98176.27
2023-02-19T18:47:12.644Z,98180.56
2023-02-19T18:49:48.203Z,98181.09
2023-02-19T18:52:21.943Z,98186.48
2023-02-19T18:54:54.205Z,98184.36
2023-02-19T18:57:26.698Z,98187.84
2023-02-19T18:59:57.809Z,98188.33
2023-02-19T19:02:36.450Z,98190.30
2023-02-19T19:05:14.219Z,98187.63
2023-02-19T19:07:45.583Z,98190.45
2023-02-19T19:10:16.914Z,98190.80
2023-02-19T19:12:48.599Z,98193.02
2023-02-19T19:15:19.868Z,98189.96
2023-02-19T19:17:51.093Z,98188.46
2023-02-19T19:20:24.190Z,98193.89
2023-02-19T19:22:55.896Z,98190.80
2023-02-19T19:25:27.269Z,98189.86
2023-02-19T19:27:58.857Z,98197.09
2023-02-19T19:30:30.644Z,98198.13
2023-02-19T19:33:03.586Z,98197.17
2023-02-19T19:35:34.491Z,98200.16
2023-02-19T19:38:05.641Z,98205.23
2023-02-19T19:40:36.766Z,98207.77
2023-02-19T19:43:07.777Z,98209.30
2023-02-19T19:45:39.357Z,98211.13
2023-02-19T19:48:10.672Z,98212.36
2023-02-19T19:50:41.766Z,98215.84
2023-02-19T19:53:12.829Z,98219.20
2023-02-19T19:55:43.915Z,98221.48
2023-02-19T19:58:16.981Z,98221.30
2023-02-19T20:00:48.412Z,98226.02
2023-02-19T20:03:19.848Z,98226.63
2023-02-19T20:05:51.620Z,98225.27
2023-02-19T20:08:23.248Z,98228.23
2023-02-19T20:10:54.599Z,98225.98
2023-02-19T20:13:26.493Z,98225.43
2023-02-19T20:15:57.889Z,98230.77
2023-02-19T20:18:30.582Z,98240.45
2023-02-19T20:21:03.657Z,98243.91
2023-02-19T20:23:34.770Z,98244.96
2023-02-19T20:26:05.826Z,98244.23
2023-02-19T20:28:36.951Z,98245.48
2023-02-19T20:31:09.426Z,98246.23
2023-02-19T20:33:40.613Z,98246.88
2023-02-19T20:36:12.189Z,98249.21
2023-02-19T20:38:43.712Z,98245.21
2023-02-19T20:41:15.267Z,98244.90
2023-02-19T20:43:44.907Z,98244.91
2023-02-19T20:46:16.010Z,98242.38
2023-02-19T20:48:47.581Z,98249.11
2023-02-19T20:51:16.933Z,98255.64
2023-02-19T20:53:48.621Z,98261.36
2023-02-19T20:56:19.607Z,98269.05
2023-02-19T20:58:50.903Z,98274.00
2023-02-19T21:01:28.594Z,98276.34
2023-02-19T21:03:58.197Z,98277.71
2023-02-19T21:06:29.218Z,98284.77
2023-02-19T21:09:00.673Z,98290.11
2023-02-19T21:11:31.923Z,98288.23
2023-02-19T21:14:03.081Z,98292.77
2023-02-19T21:16:34.707Z,98291.78
2023-02-19T21:19:06.101Z,98293.76
2023-02-19T21:21:35.614Z,98299.82
2023-02-19T21:24:08.101Z,98307.69
2023-02-19T21:26:41.950Z,98306.39
2023-02-19T21:29:16.490Z,98305.28
2023-02-19T21:31:49.691Z,98311.45
2023-02-19T21:34:22.533Z,98312.48
2023-02-19T21:36:54.362Z,98316.15
2023-02-19T21:39:31.303Z,98316.63
2023-02-19T21:42:02.623Z,98313.91
2023-02-19T21:44:33.991Z,98310.47
2023-02-19T21:47:03.527Z,98307.82
2023-02-19T21:49:34.678Z,98312.34
2023-02-19T21:52:05.858Z,98313.96
2023-02-19T21:54:37.159Z,98317.55
2023-02-19T21:57:06.848Z,98317.48
2023-02-19T21:59:37.890Z,98317.16
2023-02-19T22:02:09.961Z,98316.09
2023-02-19T22:04:41.296Z,98316.90
2023-02-19T22:07:12.295Z,98320.40
2023-02-19T22:09:43.283Z,98326.05
2023-02-19T22:12:14.322Z,98326.28
2023-02-19T22:14:46.049Z,98326.73
2023-02-19T22:17:15.481Z,98330.95
2023-02-19T22:19:46.683Z,98329.42
2023-02-19T22:22:18.773Z,98330.10
2023-02-19T22:24:49.920Z,98327.67
2023-02-19T22:27:21.112Z,98324.23
2023-02-19T22:29:52.209Z,98327.48
2023-02-19T22:32:23.274Z,98327.60
2023-02-19T22:34:54.383Z,98328.65
2023-02-19T22:37:25.547Z,98325.08
2023-02-19T22:39:55.270Z,98324.87
2023-02-19T22:42:29.415Z,98327.23
2023-02-19T22:45:00.837Z,98326.74
2023-02-19T22:47:32.185Z,98325.14
2023-02-19T22:50:03.399Z,98328.60
2023-02-19T22:52:34.374Z,98336.73
2023-02-19T22:55:05.512Z,98338.33
2023-02-19T22:57:36.659Z,98339.71
2023-02-19T23:00:08.930Z,98343.23
2023-02-19T23:02:41.248Z,98346.30
2023-02-19T23:05:12.403Z,98348.43
2023-02-19T23:07:46.882Z,98348.13
2023-02-19T23:10:18.187Z,98349.77
2023-02-19T23:12:50.633Z,98352.36
2023-02-19T23:15:21.679Z,98352.39
2023-02-19T23:17:53.322Z,98353.64
2023-02-19T23:20:24.295Z,98353.27
2023-02-19T23:22:55.358Z,98341.71
2023-02-19T23:25:26.810Z,98334.17
2023-02-19T23:27:58.637Z,98335.17
2023-02-19T23:30:30.044Z,98335.22
2023-02-19T23:32:59.651Z,98338.37
2023-02-19T23:35:30.945Z,98335.83
2023-02-19T23:38:01.984Z,98330.12
2023-02-19T23:40:33.128Z,98335.31
2023-02-19T23:43:04.322Z,98336.62
2023-02-19T23:45:35.466Z,98330.34
2023-02-19T23:48:06.618Z,98317.77
2023-02-19T23:50:37.752Z,98310.83
2023-02-19T23:53:08.762Z,98309.95
2023-02-19T23:55:39.765Z,98310.72
2023-02-19T23:58:10.843Z,98305.16
